メインページ
METAR-TAF:

METAR-TAF

空港 :

ムワンザ, タンザニア

緯度: 02-28S, 経度: 032-55E, 海抜: 1139m

現時点の気象観測

当レポートは3時間27分前の19:00(UTC)に作成
北西の風 10kt
気温 25°C
湿度 79%
気圧 1016 hPa
視程10km以上
高度2500ftの雲はほとんどない

METAR: HTMW 161900Z 32010KT 9999 FEW025 25/21 Q1016 NOSIG

時間: 01:27 (22:27 UTC)

予報

当レポートは11時間27分前の11:00(UTC)に作成
予報は16日の 12時(UTC)から 17日の 12時(UTC)まで有効
北西の風 10kt
視程10km以上
高度2700ftの雲はほとんどない
高度2800ftの雲はほとんどない, 積乱雲.
16日の 18時(UTC)から 16日の 20時(UTC)まで徐々に
の風 kt
17日の 0O時(UTC)から 17日の 05時(UTC)まで一時的に
東/北東の風 15kt
高度1900ftの雲は散在している
高度2000ftの雲はほとんどない, 積乱雲.
高度9000ftの千切れ雲あり
小雨
17日の 08時(UTC)から 17日の 10時(UTC)まで徐々に
南東の風 10kt

TAF: HTMW 161100Z 1612/1712 32010KT 9999 FEW027 FEW028CB BECMG 1618/1620 00000KT TEMPO 170O/1705 06015KT -RA SCT019 FEW020CB BKN090 BECMG 1708/1710 13010KT NSW

4,000以上の空港の気象観測と天気予報(METAR報とTAF報)

利用可能な観測所は地図上に黄色い丸と赤い丸で示す。

丸の上にカーソルを重ねると観測所名を参照できる。

次にクリックすると気象観測と天気予報を参照できる。

マップの切り替え:黒色「×」印の緑ボタンをクリックして拡大、「-」印の緑ボタンをクリックして縮小、緑色の三角印をクリックして隣りの地図に切り替え


METAR-TAF: